Time;durP1;ratioP1;P1;durP2;ratioP2;P2;SDS_P1;SDS_P2;PMS_P1;PMS_P2;Temp;Humidity;BMP_temperature;BMP_pressure;BME280_temperature;BME280_humidity;BME280_pressure;Samples;Min_cycle;Max_cycle;Signal;HPM_P1;HPM_P2
2021/09/12 00:00:44;;;;;;;7.70;5.63;;;14.60;99.90;;;;;;5052883;28;20621;-82
2021/09/12 00:03:31;;;;;;;6.90;6.30;;;14.50;99.90;;;;;;5051882;28;20745;-82
2021/09/12 00:06:18;;;;;;;7.47;6.70;;;14.50;99.90;;;;;;5051780;28;20633;-82
2021/09/12 00:09:00;;;;;;;6.40;5.80;;;14.50;99.90;;;;;;5052828;28;20655;-82
2021/09/12 00:11:47;;;;;;;7.07;5.10;;;14.40;99.90;;;;;;5050673;28;20638;-82
2021/09/12 00:14:35;;;;;;;6.40;5.80;;;14.40;99.90;;;;;;5051148;28;20750;-81
2021/09/12 00:17:22;;;;;;;6.70;6.10;;;14.40;99.90;;;;;;5051634;28;21241;-81
2021/09/12 00:20:10;;;;;;;5.93;5.27;;;14.40;99.90;;;;;;5051732;28;21222;-81
2021/09/12 00:22:57;;;;;;;5.17;4.67;;;14.30;99.90;;;;;;5051726;28;20705;-82
2021/09/12 00:25:32;;;;;;;5.83;5.10;;;14.30;99.90;;;;;;5053225;28;20627;-81
2021/09/12 00:28:08;;;;;;;5.30;4.90;;;14.30;99.90;;;;;;5064344;28;20659;-81
2021/09/12 00:30:50;;;;;;;6.50;5.03;;;14.30;99.90;;;;;;5061487;28;20622;-82
2021/09/12 00:33:31;;;;;;;6.53;5.93;;;14.30;99.90;;;;;;5056539;28;21195;-82
2021/09/12 00:36:07;;;;;;;7.63;5.00;;;14.30;99.90;;;;;;5065212;28;21205;-82
2021/09/12 00:38:47;;;;;;;5.83;5.33;;;14.30;99.90;;;;;;5049131;28;21614;-82
2021/09/12 00:41:37;;;;;;;5.53;5.13;;;14.30;99.90;;;;;;5064625;28;21229;-82
2021/09/12 00:44:25;;;;;;;5.33;4.80;;;14.20;99.90;;;;;;5064554;28;20720;-82
2021/09/12 00:47:15;;;;;;;5.90;5.40;;;14.20;99.90;;;;;;5067598;28;20617;-82
2021/09/12 00:50:01;;;;;;;5.90;5.40;;;14.20;99.90;;;;;;5051777;28;20668;-81
2021/09/12 00:52:48;;;;;;;5.47;4.97;;;14.20;99.90;;;;;;5061888;28;20634;-82
2021/09/12 00:55:32;;;;;;;10.23;5.50;;;14.20;99.90;;;;;;5067815;28;21229;-82
2021/09/12 00:58:20;;;;;;;6.87;5.50;;;14.10;99.90;;;;;;5055648;28;21251;-81
2021/09/12 01:01:09;;;;;;;5.50;5.10;;;14.20;99.90;;;;;;5055538;28;20712;-82
2021/09/12 01:03:57;;;;;;;5.67;5.10;;;14.20;99.90;;;;;;5061705;28;20617;-82
2021/09/12 01:06:34;;;;;;;5.40;4.90;;;14.20;99.90;;;;;;5059217;28;20661;-82
2021/09/12 01:09:21;;;;;;;5.90;5.40;;;14.20;99.90;;;;;;5068844;28;21240;-82
2021/09/12 01:11:58;;;;;;;6.33;5.50;;;14.20;99.90;;;;;;5069124;28;20621;-82
2021/09/12 01:14:45;;;;;;;7.83;5.70;;;14.10;99.90;;;;;;5066954;28;20646;-83
2021/09/12 01:17:36;;;;;;;6.80;6.07;;;14.00;99.90;;;;;;5069944;28;20617;-83
2021/09/12 01:20:24;;;;;;;6.53;5.60;;;14.10;99.90;;;;;;5068077;28;20747;-83
2021/09/12 01:23:11;;;;;;;6.23;5.10;;;14.10;99.90;;;;;;5066759;28;20712;-83
2021/09/12 01:25:56;;;;;;;6.93;5.33;;;14.00;99.90;;;;;;5064958;28;21220;-83
2021/09/12 01:28:34;;;;;;;8.50;5.60;;;14.00;99.90;;;;;;5071310;28;20662;-83
2021/09/12 01:31:22;;;;;;;8.20;6.63;;;14.00;99.90;;;;;;5071575;28;20969;-83
2021/09/12 01:34:09;;;;;;;7.77;6.90;;;13.90;99.90;;;;;;5069399;28;21221;-83
2021/09/12 01:36:54;;;;;;;6.37;5.73;;;13.90;99.90;;;;;;5071490;28;20601;-83
2021/09/12 01:39:43;;;;;;;10.13;6.03;;;13.90;99.90;;;;;;5070317;28;20713;-83
2021/09/12 01:42:32;;;;;;;10.97;6.77;;;13.80;99.90;;;;;;5068238;28;20729;-82
2021/09/12 01:45:15;;;;;;;7.80;6.00;;;13.80;99.90;;;;;;5070971;28;20657;-82
2021/09/12 01:48:02;;;;;;;6.27;5.13;;;13.80;99.90;;;;;;5070978;28;20621;-83
2021/09/12 01:50:49;;;;;;;7.20;6.50;;;13.90;99.90;;;;;;5064558;28;20625;-83
2021/09/12 01:53:36;;;;;;;6.87;6.20;;;13.90;99.90;;;;;;5054068;28;20714;-83
2021/09/12 01:56:24;;;;;;;6.83;6.13;;;13.90;99.90;;;;;;5050079;28;20650;-83
2021/09/12 01:59:12;;;;;;;8.87;7.97;;;14.00;99.90;;;;;;5049559;28;20652;-83
2021/09/12 02:01:59;;;;;;;6.20;5.60;;;14.00;99.90;;;;;;5050495;28;20626;-83
2021/09/12 02:04:46;;;;;;;6.87;6.10;;;13.90;99.90;;;;;;5049909;28;20726;-83
2021/09/12 02:07:32;;;;;;;6.70;6.10;;;13.90;99.90;;;;;;5056303;28;20644;-82
2021/09/12 02:10:26;;;;;;;11.30;5.90;;;13.80;99.90;;;;;;5067437;28;20713;-83
2021/09/12 02:13:13;;;;;;;8.00;5.97;;;13.80;99.90;;;;;;5089338;28;20632;-83
2021/09/12 02:15:54;;;;;;;7.17;5.93;;;13.80;99.90;;;;;;5090530;28;20644;-83
2021/09/12 02:18:43;;;;;;;8.37;6.73;;;13.70;99.90;;;;;;5091054;28;20652;-82
2021/09/12 02:21:26;;;;;;;6.23;5.60;;;13.70;99.90;;;;;;5095571;28;21152;-83
2021/09/12 02:24:12;;;;;;;6.70;5.47;;;13.70;99.90;;;;;;5094943;28;20635;-83
2021/09/12 02:26:58;;;;;;;6.27;5.77;;;13.60;99.90;;;;;;5094595;28;20616;-83
2021/09/12 02:29:33;;;;;;;5.33;4.83;;;13.60;99.90;;;;;;5094948;28;20603;-83
2021/09/12 02:32:07;;;;;;;6.37;5.73;;;13.60;99.90;;;;;;5094419;28;20612;-83
2021/09/12 02:34:55;;;;;;;6.40;5.30;;;13.60;99.90;;;;;;5094168;28;20608;-83
2021/09/12 02:37:41;;;;;;;7.20;6.50;;;13.60;99.90;;;;;;5095943;28;20707;-83
2021/09/12 02:40:27;;;;;;;7.80;7.00;;;13.60;99.90;;;;;;5094984;28;20629;-83
2021/09/12 02:43:14;;;;;;;7.93;7.13;;;13.60;99.90;;;;;;5093318;28;20632;-83
2021/09/12 02:46:01;;;;;;;9.43;8.10;;;13.60;99.90;;;;;;5093586;28;20707;-83
2021/09/12 02:48:49;;;;;;;5.80;5.30;;;13.60;99.90;;;;;;5094379;28;20703;-83
2021/09/12 02:51:33;;;;;;;8.20;7.50;;;13.60;99.90;;;;;;5090352;28;20726;-83
2021/09/12 02:54:20;;;;;;;5.43;4.93;;;13.50;99.90;;;;;;5082047;28;21228;-83
2021/09/12 02:57:05;;;;;;;5.33;4.83;;;13.40;99.90;;;;;;5074668;28;20644;-83
2021/09/12 02:59:39;;;;;;;7.67;6.53;;;13.40;99.90;;;;;;5073718;28;20604;-83
2021/09/12 03:02:24;;;;;;;5.53;5.03;;;13.40;99.90;;;;;;5073546;28;20608;-82
2021/09/12 03:05:12;;;;;;;5.63;5.13;;;13.40;99.90;;;;;;5072779;28;20616;-83
2021/09/12 03:08:00;;;;;;;6.77;6.13;;;13.40;99.90;;;;;;5073102;28;20712;-83
2021/09/12 03:10:47;;;;;;;7.03;6.37;;;13.30;99.90;;;;;;5067534;28;20719;-82
2021/09/12 03:13:35;;;;;;;4.90;4.50;;;13.30;99.90;;;;;;5073321;28;20701;-82
2021/09/12 03:16:22;;;;;;;6.37;5.30;;;13.30;99.90;;;;;;5072507;28;20746;-83
2021/09/12 03:19:08;;;;;;;7.97;5.60;;;13.20;99.90;;;;;;5073490;28;20617;-83
2021/09/12 03:21:57;;;;;;;6.23;5.73;;;13.20;99.90;;;;;;5072442;28;20737;-83
2021/09/12 03:24:44;;;;;;;6.07;4.30;;;13.20;99.90;;;;;;5073653;28;21076;-83
2021/09/12 03:27:30;;;;;;;5.63;5.13;;;13.20;99.90;;;;;;5072813;28;20719;-83
2021/09/12 03:30:17;;;;;;;5.40;4.90;;;13.20;99.90;;;;;;5073482;28;20631;-83
2021/09/12 03:33:04;;;;;;;4.97;4.47;;;13.20;99.90;;;;;;5071630;28;20653;-83
2021/09/12 03:35:51;;;;;;;5.93;5.43;;;13.20;99.90;;;;;;5072496;28;20746;-83
2021/09/12 03:38:39;;;;;;;6.07;5.47;;;13.20;99.90;;;;;;5072543;28;20724;-82
2021/09/12 03:41:23;;;;;;;7.00;6.40;;;13.20;99.90;;;;;;5073469;28;20609;-83
2021/09/12 03:44:10;;;;;;;6.50;5.10;;;13.20;99.90;;;;;;5072105;28;20653;-83
2021/09/12 03:46:57;;;;;;;5.23;4.07;;;13.10;99.90;;;;;;5072132;28;20969;-83
2021/09/12 03:49:44;;;;;;;5.40;4.80;;;13.10;99.90;;;;;;5066216;28;20746;-83
2021/09/12 03:52:29;;;;;;;7.77;5.57;;;13.10;99.90;;;;;;5058539;28;20746;-83
2021/09/12 03:55:18;;;;;;;6.30;5.50;;;13.00;99.90;;;;;;5066206;28;20704;-83
2021/09/12 03:58:00;;;;;;;7.50;6.80;;;12.90;99.90;;;;;;5053257;28;20706;-83
2021/09/12 04:00:42;;;;;;;7.80;5.80;;;12.90;99.90;;;;;;5053191;28;20709;-83
2021/09/12 04:03:25;;;;;;;6.17;5.63;;;12.90;99.90;;;;;;5053027;28;20621;-83
2021/09/12 04:06:00;;;;;;;5.67;5.10;;;12.90;99.90;;;;;;5053074;28;20630;-83
2021/09/12 04:08:47;;;;;;;5.80;5.30;;;12.90;99.90;;;;;;5052199;28;20653;-83
2021/09/12 04:11:29;;;;;;;6.47;5.80;;;12.90;99.90;;;;;;5052843;28;20623;-83
2021/09/12 04:14:11;;;;;;;7.90;6.50;;;12.90;99.90;;;;;;5053082;28;21046;-83
2021/09/12 04:16:56;;;;;;;6.57;5.97;;;12.90;99.90;;;;;;5052788;28;20639;-83
2021/09/12 04:19:34;;;;;;;8.73;6.57;;;12.90;99.90;;;;;;5049297;28;21004;-83
2021/09/12 04:22:21;;;;;;;10.53;5.80;;;13.00;99.90;;;;;;5051481;28;20619;-83
2021/09/12 04:24:58;;;;;;;5.10;4.60;;;12.80;99.90;;;;;;5052246;28;20631;-83
2021/09/12 04:27:46;;;;;;;5.07;4.67;;;12.80;99.90;;;;;;5051748;28;20727;-83
2021/09/12 04:30:33;;;;;;;4.60;4.20;;;12.70;99.90;;;;;;5051674;28;21278;-83
2021/09/12 04:33:19;;;;;;;6.10;5.50;;;12.70;99.90;;;;;;5051148;28;20741;-83
2021/09/12 04:36:06;;;;;;;6.00;5.43;;;12.80;99.90;;;;;;5050433;28;20754;-83
2021/09/12 04:38:53;;;;;;;5.23;4.80;;;12.70;99.90;;;;;;5051518;28;21034;-83
2021/09/12 04:41:42;;;;;;;5.47;5.07;;;12.70;99.90;;;;;;5044609;28;20734;-83
2021/09/12 04:44:30;;;;;;;6.27;5.67;;;12.70;99.90;;;;;;5050743;28;21190;-83
2021/09/12 04:47:17;;;;;;;5.90;5.27;;;12.60;99.90;;;;;;5051162;28;20757;-83
2021/09/12 04:50:07;;;;;;;5.57;5.07;;;12.70;99.90;;;;;;5052131;28;21206;-83
2021/09/12 04:52:53;;;;;;;6.50;5.90;;;12.60;99.90;;;;;;5054134;28;20623;-83
2021/09/12 04:55:37;;;;;;;8.43;5.90;;;12.60;99.90;;;;;;5072051;28;20941;-82
2021/09/12 04:58:24;;;;;;;6.73;6.03;;;12.60;99.90;;;;;;5070832;28;20621;-83
2021/09/12 05:01:12;;;;;;;6.27;5.67;;;12.60;99.90;;;;;;5071847;28;20619;-82
2021/09/12 05:04:00;;;;;;;5.83;5.00;;;12.50;99.90;;;;;;5071000;28;20685;-82
2021/09/12 05:06:38;;;;;;;6.00;5.43;;;12.50;99.90;;;;;;5071774;28;20713;-82
2021/09/12 05:09:16;;;;;;;6.67;6.07;;;12.40;99.90;;;;;;5071857;28;20623;-82
2021/09/12 05:11:51;;;;;;;7.60;5.80;;;12.50;99.90;;;;;;5072570;28;20630;-83
2021/09/12 05:14:25;;;;;;;8.70;5.80;;;12.50;99.90;;;;;;5081578;28;20699;-83
2021/09/12 05:17:13;;;;;;;6.60;5.67;;;12.50;99.90;;;;;;5070381;28;20650;-82
2021/09/12 05:19:57;;;;;;;5.67;5.17;;;12.40;99.90;;;;;;5071688;28;20609;-82
2021/09/12 05:22:43;;;;;;;6.50;5.97;;;12.30;99.90;;;;;;5071200;28;20733;-83
2021/09/12 05:25:24;;;;;;;9.23;5.33;;;12.40;99.90;;;;;;5050857;28;20619;-83
2021/09/12 05:28:13;;;;;;;4.70;4.30;;;12.40;99.90;;;;;;5050925;28;21181;-82
2021/09/12 05:30:59;;;;;;;5.87;5.37;;;12.40;99.90;;;;;;5052291;28;21025;-83
2021/09/12 05:33:48;;;;;;;5.87;5.27;;;12.40;99.90;;;;;;5049975;28;20624;-82
2021/09/12 05:36:34;;;;;;;5.53;5.07;;;12.50;99.90;;;;;;5064529;28;21055;-82
2021/09/12 05:39:17;;;;;;;6.20;5.60;;;12.50;99.90;;;;;;5051451;28;20618;-82
2021/09/12 05:42:04;;;;;;;6.40;5.80;;;12.50;99.90;;;;;;5049405;28;20621;-83
2021/09/12 05:44:43;;;;;;;8.87;5.67;;;12.50;99.90;;;;;;5062582;28;20618;-82
2021/09/12 05:47:27;;;;;;;6.13;5.63;;;12.60;99.90;;;;;;5071264;28;21185;-83
2021/09/12 05:50:05;;;;;;;6.83;6.00;;;12.70;99.90;;;;;;5071515;28;20701;-82
2021/09/12 05:52:52;;;;;;;7.80;7.00;;;12.70;99.90;;;;;;5065767;28;20655;-83
2021/09/12 05:55:41;;;;;;;7.10;6.47;;;12.70;99.90;;;;;;5069575;28;20678;-82
2021/09/12 05:58:18;;;;;;;6.47;5.87;;;12.80;99.90;;;;;;5071530;28;20745;-83
2021/09/12 06:01:04;;;;;;;6.40;5.80;;;12.90;99.90;;;;;;5070203;28;20651;-82
2021/09/12 06:03:51;;;;;;;6.13;5.63;;;13.00;99.90;;;;;;5069703;28;20619;-82
2021/09/12 06:06:40;;;;;;;6.70;6.10;;;13.00;99.90;;;;;;5070200;28;20655;-82
2021/09/12 06:09:27;;;;;;;5.50;5.00;;;13.20;99.90;;;;;;5070429;28;21033;-82
2021/09/12 06:12:04;;;;;;;8.30;7.00;;;13.30;99.90;;;;;;5071051;28;20989;-82
2021/09/12 06:14:51;;;;;;;7.10;6.50;;;13.40;99.90;;;;;;5070230;28;20662;-82
2021/09/12 06:17:33;;;;;;;7.07;6.47;;;13.50;99.90;;;;;;5061253;28;20703;-82
2021/09/12 06:20:21;;;;;;;7.43;5.80;;;13.60;99.90;;;;;;5050806;28;20638;-82
2021/09/12 06:23:10;;;;;;;6.43;5.80;;;13.70;99.90;;;;;;5056107;28;20971;-82
2021/09/12 06:25:56;;;;;;;7.60;6.90;;;13.80;99.90;;;;;;5060435;28;20629;-82
2021/09/12 06:28:34;;;;;;;9.40;8.40;;;14.00;99.90;;;;;;5055128;28;20633;-82
2021/09/12 06:31:12;;;;;;;7.57;6.90;;;14.10;99.90;;;;;;5053942;28;20637;-82
2021/09/12 06:33:59;;;;;;;6.93;6.30;;;14.20;99.90;;;;;;5059787;28;20632;-82
2021/09/12 06:36:45;;;;;;;8.57;7.77;;;14.40;99.90;;;;;;5056689;28;21317;-82
2021/09/12 06:39:26;;;;;;;9.33;8.33;;;14.40;99.90;;;;;;5061700;28;20997;-82
2021/09/12 06:42:13;;;;;;;7.03;6.23;;;14.50;99.90;;;;;;5046031;28;20653;-82
2021/09/12 06:44:56;;;;;;;6.83;6.23;;;14.60;99.90;;;;;;5060147;28;20609;-82
2021/09/12 06:47:38;;;;;;;7.53;6.87;;;14.70;99.90;;;;;;5059120;28;20607;-82
2021/09/12 06:50:19;;;;;;;8.47;7.40;;;14.80;99.90;;;;;;5061108;28;20620;-84
2021/09/12 06:53:06;;;;;;;8.93;7.77;;;15.00;99.90;;;;;;5057448;28;21065;-84
2021/09/12 06:55:54;;;;;;;7.73;7.03;;;14.90;99.90;;;;;;5069135;28;20641;-85
2021/09/12 06:58:42;;;;;;;8.23;7.30;;;14.90;99.90;;;;;;5066534;28;20660;-86
2021/09/12 07:05:09;;;;;;;16.50;8.47;;;15.30;99.90;;;;;;5057705;28;20625;-87
2021/09/12 07:07:56;;;;;;;8.20;7.50;;;15.40;99.90;;;;;;5072087;28;20754;-86
2021/09/12 07:10:43;;;;;;;8.50;7.70;;;15.50;99.90;;;;;;5073678;28;20682;-86
2021/09/12 07:13:32;;;;;;;8.23;7.43;;;15.40;99.90;;;;;;5065677;28;20674;-86
2021/09/12 07:16:16;;;;;;;7.40;6.70;;;15.50;99.90;;;;;;5072498;28;20629;-87
2021/09/12 07:19:07;;;;;;;9.37;7.83;;;15.80;99.90;;;;;;5056240;28;21052;-86
2021/09/12 07:21:48;;;;;;;9.00;8.10;;;16.00;99.90;;;;;;5067321;28;20632;-86
2021/09/12 07:24:36;;;;;;;9.03;7.57;;;16.10;99.90;;;;;;5064855;28;20675;-86
2021/09/12 07:27:15;;;;;;;8.63;7.70;;;16.10;99.90;;;;;;5070509;28;20951;-86
2021/09/12 07:29:55;;;;;;;8.90;8.10;;;16.10;99.90;;;;;;5074455;28;21348;-86
2021/09/12 07:32:33;;;;;;;10.60;9.60;;;16.30;99.90;;;;;;5063707;28;20716;-86
2021/09/12 07:35:10;;;;;;;9.03;8.13;;;16.40;99.90;;;;;;5067599;28;20617;-86
2021/09/12 07:37:52;;;;;;;9.07;8.27;;;16.30;99.90;;;;;;5072707;28;21014;-85
2021/09/12 07:40:27;;;;;;;7.90;7.20;;;16.30;99.90;;;;;;5071599;28;20620;-86
2021/09/12 07:43:14;;;;;;;8.10;7.10;;;16.50;99.90;;;;;;5070430;28;20702;-86
2021/09/12 07:46:02;;;;;;;7.50;6.77;;;16.50;99.90;;;;;;5058872;28;20597;-86
2021/09/12 07:48:49;;;;;;;5.97;5.47;;;16.60;99.90;;;;;;5061936;28;20614;-85
2021/09/12 07:51:36;;;;;;;6.93;6.33;;;16.70;99.90;;;;;;5072621;28;20624;-86
2021/09/12 07:54:18;;;;;;;6.40;5.90;;;16.70;99.90;;;;;;5054382;28;20618;-87
2021/09/12 07:57:05;;;;;;;7.23;6.40;;;16.70;99.90;;;;;;5054689;28;20650;-86
2021/09/12 07:59:53;;;;;;;5.57;5.17;;;17.00;99.90;;;;;;5063798;28;20629;-86
2021/09/12 08:03:25;;;;;;;5.87;5.37;;;17.30;99.90;;;;;;5068592;28;21198;-87
2021/09/12 08:06:34;;;;;;;;;;;;;;;;;;;;;
2021/09/12 08:09:37;;;;;;;6.03;5.43;;;17.50;99.90;;;;;;5064292;28;20739;-86
2021/09/12 08:12:24;;;;;;;5.73;5.23;;;17.60;99.90;;;;;;5058796;28;20216;-85
2021/09/12 08:15:11;;;;;;;5.37;4.87;;;17.50;99.90;;;;;;5061293;28;20630;-84
2021/09/12 08:17:46;;;;;;;7.57;4.90;;;17.50;99.90;;;;;;5067314;28;20640;-85
2021/09/12 08:20:36;;;;;;;5.90;5.40;;;17.80;99.90;;;;;;5066430;28;20673;-85
2021/09/12 08:23:24;;;;;;;5.90;5.30;;;17.80;99.90;;;;;;5080032;28;20972;-84
2021/09/12 08:26:10;;;;;;;5.27;4.80;;;17.70;99.90;;;;;;5073276;28;20704;-85
2021/09/12 08:28:57;;;;;;;4.90;4.50;;;17.80;99.90;;;;;;5072008;28;20712;-84
2021/09/12 08:31:38;;;;;;;6.50;6.00;;;17.70;99.90;;;;;;5072899;28;20623;-84
2021/09/12 08:34:23;;;;;;;5.37;4.90;;;18.00;99.90;;;;;;5073342;28;20657;-84
2021/09/12 08:37:08;;;;;;;4.90;4.50;;;18.20;99.90;;;;;;5073113;28;20661;-85
2021/09/12 08:39:46;;;;;;;6.70;4.40;;;18.40;99.90;;;;;;5072603;28;20955;-84
2021/09/12 08:42:27;;;;;;;4.23;3.93;;;18.40;99.90;;;;;;5072451;28;20621;-84
2021/09/12 08:45:10;;;;;;;5.40;4.30;;;18.50;99.90;;;;;;5072912;28;20609;-84
2021/09/12 08:47:57;;;;;;;6.00;5.40;;;18.70;99.90;;;;;;5071551;28;20725;-83
2021/09/12 08:50:37;;;;;;;5.80;5.30;;;18.30;99.90;;;;;;5072698;28;20949;-83
2021/09/12 08:53:24;;;;;;;4.97;4.63;;;18.40;99.90;;;;;;5071424;28;20618;-83
2021/09/12 08:56:10;;;;;;;3.80;3.50;;;18.20;99.90;;;;;;5072644;28;20631;-84
2021/09/12 08:58:58;;;;;;;5.40;4.90;;;18.20;99.90;;;;;;5055472;28;20725;-83
2021/09/12 09:01:42;;;;;;;6.33;5.60;;;18.50;99.90;;;;;;5052433;28;21190;-84
2021/09/12 09:04:30;;;;;;;4.60;4.10;;;18.80;99.90;;;;;;5051489;28;21172;-83
2021/09/12 09:07:17;;;;;;;6.27;5.77;;;18.60;99.90;;;;;;5051345;28;20717;-84
2021/09/12 09:09:56;;;;;;;6.90;6.30;;;18.50;99.90;;;;;;5052756;28;20614;-84
2021/09/12 09:12:45;;;;;;;4.57;4.17;;;18.60;99.90;;;;;;5051348;28;21011;-84
2021/09/12 09:15:32;;;;;;;5.47;3.90;;;19.00;99.90;;;;;;5051302;28;20717;-83
2021/09/12 09:18:31;;;;;;;4.47;3.77;;;19.10;99.90;;;;;;5051223;28;20657;-84
2021/09/12 09:21:22;;;;;;;4.57;4.20;;;19.20;99.70;;;;;;5052319;28;20614;-84
2021/09/12 09:24:12;;;;;;;3.90;3.50;;;19.30;98.70;;;;;;5050955;28;20622;-84
2021/09/12 09:27:03;;;;;;;7.60;3.90;;;19.40;98.50;;;;;;5049347;28;20630;-83
2021/09/12 09:29:55;;;;;;;4.00;3.70;;;18.80;99.10;;;;;;5049494;28;20622;-84
2021/09/12 09:32:34;;;;;;;9.67;8.77;;;18.60;99.90;;;;;;5051279;28;20645;-84
2021/09/12 09:35:06;;;;;;;4.43;4.03;;;18.80;99.90;;;;;;5051945;28;20614;-85
2021/09/12 09:37:49;;;;;;;3.63;3.43;;;19.20;99.90;;;;;;5053634;28;20765;-84
2021/09/12 09:40:20;;;;;;;3.60;3.30;;;19.50;99.20;;;;;;5071901;28;20604;-85
2021/09/12 09:42:58;;;;;;;3.87;3.57;;;19.60;99.40;;;;;;5071619;28;20667;-84
2021/09/12 09:45:47;;;;;;;3.40;3.17;;;19.60;99.00;;;;;;5071720;28;20631;-85
2021/09/12 09:48:34;;;;;;;7.47;3.77;;;19.60;98.40;;;;;;5071582;28;20601;-84
2021/09/12 09:51:06;;;;;;;4.07;3.40;;;19.80;96.80;;;;;;5071931;28;20701;-85
2021/09/12 09:53:56;;;;;;;3.53;3.23;;;19.90;96.60;;;;;;5086303;28;20628;-83
2021/09/12 09:56:34;;;;;;;3.40;3.20;;;19.60;96.20;;;;;;5091837;28;20711;-84
2021/09/12 09:59:18;;;;;;;4.00;3.70;;;19.50;95.70;;;;;;5072826;28;21183;-84
2021/09/12 10:02:01;;;;;;;3.27;3.00;;;19.70;97.40;;;;;;5071544;28;20625;-84
2021/09/12 10:04:33;;;;;;;3.80;3.17;;;19.70;96.70;;;;;;5071419;28;20979;-83
2021/09/12 10:07:16;;;;;;;3.07;2.87;;;19.90;96.90;;;;;;5071364;28;21228;-84
2021/09/12 10:10:03;;;;;;;3.67;3.37;;;20.10;96.30;;;;;;5070924;28;20708;-83
2021/09/12 10:12:48;;;;;;;3.13;2.93;;;20.50;95.90;;;;;;5071336;28;20678;-84
2021/09/12 10:15:33;;;;;;;3.23;3.03;;;20.70;94.70;;;;;;5069909;28;20625;-85
2021/09/12 10:18:16;;;;;;;5.13;3.80;;;20.80;94.50;;;;;;5071463;28;20692;-84
2021/09/12 10:20:56;;;;;;;3.93;3.47;;;20.80;95.80;;;;;;5071680;28;20617;-83
2021/09/12 10:23:36;;;;;;;4.20;3.90;;;20.70;95.60;;;;;;5071300;28;20650;-84
2021/09/12 10:26:29;;;;;;;3.70;3.37;;;20.70;95.90;;;;;;5071447;28;20618;-84
2021/09/12 10:29:43;;;;;;;3.67;3.17;;;20.70;96.20;;;;;;5071716;28;20620;-84
2021/09/12 10:32:34;;;;;;;3.60;3.30;;;20.80;95.40;;;;;;5070247;28;20693;-83
2021/09/12 10:35:26;;;;;;;3.00;2.80;;;20.30;95.60;;;;;;5070239;28;21287;-83
2021/09/12 10:38:14;;;;;;;4.37;4.07;;;20.10;95.80;;;;;;5062817;28;21231;-84
2021/09/12 10:41:14;;;;;;;4.13;3.30;;;20.10;97.30;;;;;;5071953;28;21163;-84
2021/09/12 10:43:54;;;;;;;6.43;3.23;;;20.10;97.90;;;;;;5073744;28;20619;-83
2021/09/12 10:46:30;;;;;;;3.77;3.47;;;20.10;96.40;;;;;;5074211;28;20743;-83
2021/09/12 10:49:07;;;;;;;9.20;8.40;;;20.10;96.10;;;;;;5074220;28;20619;-83
2021/09/12 10:51:55;;;;;;;8.07;4.70;;;19.90;95.80;;;;;;5072192;28;20758;-83
2021/09/12 10:54:32;;;;;;;3.80;3.60;;;19.80;96.00;;;;;;5074170;28;20609;-84
2021/09/12 10:57:10;;;;;;;6.23;4.40;;;19.70;96.40;;;;;;5073427;28;20603;-83
2021/09/12 10:59:53;;;;;;;4.20;3.80;;;19.90;97.30;;;;;;5054268;28;20627;-84
2021/09/12 11:02:27;;;;;;;3.60;3.33;;;19.80;96.40;;;;;;5054743;28;20664;-84
2021/09/12 11:04:58;;;;;;;3.60;2.97;;;20.10;94.40;;;;;;5074754;28;20613;-84
2021/09/12 11:07:51;;;;;;;4.20;3.30;;;20.20;94.00;;;;;;5074676;28;20599;-84
2021/09/12 11:10:37;;;;;;;3.80;3.27;;;20.30;94.20;;;;;;5074765;28;20967;-83
2021/09/12 11:13:11;;;;;;;3.43;3.23;;;20.20;95.10;;;;;;5073924;28;20621;-82
2021/09/12 11:15:42;;;;;;;3.47;3.23;;;20.00;94.40;;;;;;5071860;28;20741;-82
2021/09/12 11:18:18;;;;;;;3.70;3.50;;;19.90;95.40;;;;;;5074729;28;21218;-83
2021/09/12 11:20:50;;;;;;;4.03;3.73;;;19.90;94.90;;;;;;5074644;28;20610;-84
2021/09/12 11:23:35;;;;;;;4.50;4.20;;;20.30;95.10;;;;;;5074129;28;20705;-83
2021/09/12 11:26:05;;;;;;;3.37;3.13;;;20.80;93.10;;;;;;5074499;28;20611;-82
2021/09/12 11:28:40;;;;;;;3.33;3.00;;;21.10;93.00;;;;;;5086703;28;21211;-83
2021/09/12 11:31:12;;;;;;;3.10;2.80;;;21.30;93.30;;;;;;5074444;28;20607;-83
2021/09/12 11:33:50;;;;;;;3.50;3.30;;;21.40;94.10;;;;;;5073968;28;20731;-82
2021/09/12 11:36:22;;;;;;;3.17;2.97;;;21.60;93.40;;;;;;5074312;28;20601;-83
2021/09/12 11:39:00;;;;;;;3.93;3.63;;;21.80;93.10;;;;;;5073941;28;20641;-83
2021/09/12 11:41:36;;;;;;;4.10;3.80;;;21.70;93.00;;;;;;5074136;28;20602;-83
2021/09/12 11:44:20;;;;;;;4.17;3.77;;;21.70;92.10;;;;;;5074373;28;20620;-83
2021/09/12 11:46:59;;;;;;;3.40;3.20;;;21.50;93.10;;;;;;5074087;28;20624;-83
2021/09/12 11:49:42;;;;;;;3.30;3.00;;;21.70;93.40;;;;;;5073979;28;20721;-83
2021/09/12 11:52:33;;;;;;;3.67;3.37;;;21.80;93.00;;;;;;5070485;28;20659;-83
2021/09/12 11:55:23;;;;;;;3.97;3.57;;;21.70;92.00;;;;;;5070627;28;20631;-82
2021/09/12 11:58:10;;;;;;;3.33;3.10;;;21.40;91.50;;;;;;5060720;28;20648;-82
2021/09/12 12:00:44;;;;;;;3.23;3.00;;;21.20;91.60;;;;;;5059154;28;20620;-83
2021/09/12 12:03:34;;;;;;;3.10;2.87;;;21.50;91.90;;;;;;5063097;28;20616;-83
2021/09/12 12:06:22;;;;;;;3.50;3.20;;;21.70;89.20;;;;;;5063658;28;20822;-84
2021/09/12 12:09:06;;;;;;;3.13;2.77;;;21.70;90.20;;;;;;5061633;28;20623;-83
2021/09/12 12:11:54;;;;;;;2.60;2.40;;;21.50;90.50;;;;;;5069806;28;20625;-83
2021/09/12 12:14:31;;;;;;;2.97;2.77;;;21.40;91.00;;;;;;5069854;28;20622;-83
2021/09/12 12:17:20;;;;;;;3.50;3.20;;;21.50;89.80;;;;;;5061180;28;21291;-82
2021/09/12 12:19:58;;;;;;;3.25;2.95;;;21.40;90.80;;;;;;5064617;28;20780;-81
2021/09/12 12:22:37;;;;;;;3.70;3.40;;;21.40;92.00;;;;;;5053204;28;20675;-83
2021/09/12 12:25:29;;;;;;;3.30;3.10;;;21.60;91.30;;;;;;5051202;28;20628;-83
2021/09/12 12:28:19;;;;;;;3.00;2.80;;;21.90;90.70;;;;;;5049727;28;20640;-83
2021/09/12 12:31:16;;;;;;;2.80;2.60;;;22.20;89.70;;;;;;5054091;28;21181;-85
2021/09/12 12:34:03;;;;;;;3.70;3.40;;;22.30;90.90;;;;;;5061248;28;20608;-84
2021/09/12 12:36:50;;;;;;;3.73;3.43;;;22.30;90.10;;;;;;5074911;28;20695;-85
2021/09/12 12:39:41;;;;;;;3.17;2.97;;;22.30;90.80;;;;;;5061041;28;20715;-84
2021/09/12 12:42:35;;;;;;;4.70;2.87;;;22.60;88.50;;;;;;5064651;28;20688;-85
2021/09/12 12:45:28;;;;;;;3.63;3.33;;;22.40;87.90;;;;;;5064550;28;20606;-85
2021/09/12 12:48:20;;;;;;;3.60;3.30;;;21.90;87.40;;;;;;5063296;28;20609;-81
2021/09/12 12:51:12;;;;;;;3.23;3.03;;;21.80;91.20;;;;;;5061749;28;20641;-83
2021/09/12 12:53:56;;;;;;;4.17;2.93;;;21.90;90.60;;;;;;5060846;28;20680;-82
2021/09/12 12:56:43;;;;;;;3.50;3.20;;;22.10;89.50;;;;;;5062488;28;20676;-84
2021/09/12 12:59:32;;;;;;;3.20;3.00;;;22.10;89.90;;;;;;5062260;28;20676;-85
2021/09/12 13:02:23;;;;;;;3.43;2.90;;;22.20;88.40;;;;;;5059147;28;20672;-84
2021/09/12 13:05:10;;;;;;;3.07;2.87;;;21.90;88.50;;;;;;5062988;28;20618;-82
2021/09/12 13:07:57;;;;;;;3.27;2.97;;;21.90;88.80;;;;;;5059286;28;20608;-84
2021/09/12 13:10:44;;;;;;;3.20;2.90;;;22.20;87.90;;;;;;5064824;28;20610;-85
2021/09/12 13:13:34;;;;;;;3.80;3.50;;;22.50;88.30;;;;;;5061803;28;20664;-83
2021/09/12 13:16:24;;;;;;;3.17;2.97;;;22.60;87.60;;;;;;5061499;28;20655;-84
2021/09/12 13:19:18;;;;;;;2.90;2.67;;;22.80;84.30;;;;;;5064204;28;20641;-84
2021/09/12 13:22:05;;;;;;;2.87;2.67;;;22.70;84.80;;;;;;5060548;28;20648;-83
2021/09/12 13:24:54;;;;;;;2.60;2.40;;;22.80;83.70;;;;;;5064508;28;20636;-83
2021/09/12 13:28:06;;;;;;;4.70;3.47;;;23.10;83.10;;;;;;5063548;28;20618;-85
2021/09/12 13:30:57;;;;;;;3.73;3.43;;;23.00;83.30;;;;;;5062752;28;20614;-84
2021/09/12 13:34:08;;;;;;;;;;;;;;;;;;;;;
2021/09/12 13:36:57;;;;;;;4.10;2.83;;;23.40;82.00;;;;;;5053108;28;20717;-84
2021/09/12 13:39:34;;;;;;;3.07;2.87;;;23.40;86.60;;;;;;5062073;28;20695;-83
2021/09/12 13:42:21;;;;;;;3.90;3.17;;;23.80;83.20;;;;;;5059766;28;20641;-84
2021/09/12 13:45:09;;;;;;;4.33;2.90;;;23.90;81.20;;;;;;5060457;28;20741;-84
2021/09/12 13:48:00;;;;;;;2.83;2.53;;;24.00;83.40;;;;;;5055842;28;20749;-83
2021/09/12 13:50:47;;;;;;;3.27;2.80;;;25.00;82.10;;;;;;5061264;28;20618;-85
2021/09/12 13:53:35;;;;;;;3.10;2.70;;;26.70;80.60;;;;;;5062668;28;20666;-85
2021/09/12 13:56:14;;;;;;;2.87;2.70;;;28.00;74.40;;;;;;5061691;28;20716;-82
2021/09/12 13:59:01;;;;;;;2.73;2.53;;;28.90;70.80;;;;;;5066267;28;20868;-83
2021/09/12 14:01:48;;;;;;;2.50;2.37;;;29.10;67.50;;;;;;5051949;28;20618;-84
2021/09/12 14:04:39;;;;;;;2.90;2.73;;;29.10;68.00;;;;;;5050439;28;20625;-83
2021/09/12 14:07:29;;;;;;;2.60;2.40;;;29.70;65.40;;;;;;5064742;28;20631;-85
2021/09/12 14:10:18;;;;;;;3.00;2.80;;;29.60;65.50;;;;;;5067886;28;20617;-84
2021/09/12 14:13:04;;;;;;;2.30;2.20;;;28.80;64.30;;;;;;5068807;28;20671;-85
2021/09/12 14:15:51;;;;;;;3.00;2.80;;;28.40;66.50;;;;;;5070149;28;21248;-85
2021/09/12 14:18:38;;;;;;;2.63;2.43;;;27.70;67.10;;;;;;5069525;28;20760;-83
2021/09/12 14:21:28;;;;;;;2.80;2.60;;;27.10;69.90;;;;;;5069961;28;20605;-84
2021/09/12 14:24:15;;;;;;;2.70;2.50;;;27.00;71.00;;;;;;5069715;28;20622;-85